Airfield :
LOGIN :

Register | Disclaimer

   EN    FR    IT 

 










Legend :    VFR   Marginal VFR   IFR   Intensive IFR   Very Intensive IFR
Visi :
Ceiling :
>= 8 km
>= 3000ft
5 to 8 km
1000 to 3000 ft
1500m to 5 km
500 to 1000 ft
800 to 1500m
200 to 500 ft
< 800m
< 200 ft
Symbols :   Thunderstorms  Fog  Heavy snow  Heavy precipitations  Wind > 20 kt
SIGMETs :     Misc.  Thunderstorms  Icing  Turbulence  Mountain Waves  Volcanic Ashes







- Airport Elevation : 995 ft
- IATA code : KTW


EPKT - Katowice

CURRENT METAR :
  • 200930Z 22009KT 150V260 9999 FEW040 26/16 Q1012

EXPIRED METARs :
  • 200900Z 21010KT 180V240 CAVOK 24/16 Q1012
  • 200830Z 20009KT 170V230 CAVOK 24/16 Q1012
  • 200800Z 19011KT 170V230 CAVOK 23/15 Q1012
  • 200730Z 20008KT CAVOK 23/15 Q1012
  • 200700Z 20010KT CAVOK 22/15 Q1012
  • 200630Z 19009KT 170V230 CAVOK 22/15 Q1012

TAF TAF EPKT
Valid from the 20 at 06:00 until the 21 at 06:00 UTC


200530Z 2006/2106 20008KT CAVOK
TEMPO 2010/2018 SCT040CB
PROB30
TEMPO 2012/2018 VRB15G25KT 4000 TSRA
No reported NOTAMs for that airfield.



MET'MAP, your aeronautical weather chart ! - Copyright ORBIFLY December 2007 - Disclaimer

ORBIFLY MET'MAP TEAM :

Programming & Development : Alexandra Zaïnal
Concept & Development : Baudouin d'Aumeries
Co-Development & Prog : Marc-Olivier Méhu
Technical & hardware support : Manuel Goepfert

Contact : metmap@orbifly.com




SOURCES & CREDITS :

   NOAA